createdAt,value
2023-03-24T00:00:17.736Z,63.60
2023-03-24T00:02:46.466Z,72.03
2023-03-24T00:05:16.657Z,69.55
2023-03-24T00:07:43.563Z,84.60
2023-03-24T00:10:18.018Z,87.03
2023-03-24T00:12:46.007Z,100.05
2023-03-24T00:15:15.548Z,119.55
2023-03-24T00:17:42.271Z,115.72
2023-03-24T00:20:14.717Z,115.50
2023-03-24T00:22:48.802Z,112.65
2023-03-24T00:25:17.605Z,108.13
2023-03-24T00:27:48.958Z,112.28
2023-03-24T00:30:17.308Z,115.50
2023-03-24T00:32:44.830Z,118.50
2023-03-24T00:35:13.794Z,120.85
2023-03-24T00:37:41.748Z,118.07
2023-03-24T00:40:16.395Z,118.75
2023-03-24T00:45:18.250Z,90.97
2023-03-24T00:47:45.007Z,96.50
2023-03-24T00:50:20.607Z,100.70
2023-03-24T00:52:49.160Z,95.15
2023-03-24T00:55:16.702Z,96.35
2023-03-24T00:57:51.827Z,90.78
2023-03-24T01:00:21.501Z,84.68
2023-03-24T01:02:53.766Z,88.28
2023-03-24T01:05:22.784Z,89.13
2023-03-24T01:07:52.059Z,314.77
2023-03-24T01:10:21.769Z,88.90
2023-03-24T01:12:49.017Z,46.72
2023-03-24T01:15:20.300Z,44.10
2023-03-24T01:17:48.814Z,41.03
2023-03-24T01:20:16.502Z,37.10
2023-03-24T01:22:44.811Z,36.03
2023-03-24T01:25:22.793Z,34.30
2023-03-24T01:27:51.056Z,35.45
2023-03-24T01:30:21.847Z,37.83
2023-03-24T01:32:48.587Z,39.97
2023-03-24T01:35:15.408Z,40.30
2023-03-24T01:37:42.205Z,39.42
2023-03-24T01:40:12.494Z,37.00
2023-03-24T01:42:39.899Z,36.08
2023-03-24T01:45:40.560Z,36.25
2023-03-24T01:48:16.429Z,36.50
2023-03-24T01:50:48.991Z,35.95
2023-03-24T01:53:15.823Z,36.30
2023-03-24T01:55:45.972Z,35.85
2023-03-24T01:58:13.056Z,35.35
2023-03-24T02:00:42.228Z,36.75
2023-03-24T02:03:14.916Z,35.75
2023-03-24T02:05:45.253Z,36.08
2023-03-24T02:08:32.847Z,33.65
2023-03-24T02:11:01.592Z,34.00
2023-03-24T02:13:28.217Z,36.28
2023-03-24T02:16:14.055Z,34.88
2023-03-24T02:19:01.609Z,33.78
2023-03-24T02:21:46.383Z,33.22
2023-03-24T02:24:31.705Z,34.58
2023-03-24T02:27:27.118Z,33.15
2023-03-24T02:32:47.639Z,31.98
2023-03-24T02:35:32.479Z,33.25
2023-03-24T02:38:20.432Z,32.33
2023-03-24T02:40:47.365Z,33.17
2023-03-24T02:43:18.128Z,31.33
2023-03-24T02:45:54.492Z,34.28
2023-03-24T02:48:52.289Z,35.00
2023-03-24T02:51:34.729Z,34.85
2023-03-24T02:54:07.311Z,35.03
2023-03-24T02:56:37.604Z,33.90
2023-03-24T02:59:15.974Z,32.05
2023-03-24T03:01:54.177Z,31.63
2023-03-24T03:04:29.557Z,31.98
2023-03-24T03:06:59.756Z,31.75
2023-03-24T03:09:28.936Z,32.78
2023-03-24T03:11:59.820Z,32.85
2023-03-24T03:14:38.945Z,33.22
2023-03-24T03:17:12.721Z,32.30
2023-03-24T03:19:44.227Z,31.77
2023-03-24T03:22:17.695Z,32.67
2023-03-24T03:24:50.539Z,33.15
2023-03-24T03:27:27.328Z,34.45
2023-03-24T03:30:00.360Z,34.55
2023-03-24T03:32:31.766Z,34.75
2023-03-24T03:35:11.092Z,33.42
2023-03-24T03:37:59.064Z,31.20
2023-03-24T03:40:34.811Z,31.45
2023-03-24T03:43:02.227Z,31.95
2023-03-24T03:45:28.897Z,29.83
2023-03-24T03:47:55.669Z,28.23
2023-03-24T03:50:22.349Z,29.75
2023-03-24T03:52:50.152Z,29.40
2023-03-24T03:55:17.128Z,31.70
2023-03-24T03:57:43.736Z,32.67
2023-03-24T04:00:17.124Z,35.00
2023-03-24T04:03:14.787Z,36.28
2023-03-24T04:05:57.855Z,35.03
2023-03-24T04:08:32.170Z,39.40
2023-03-24T04:11:23.327Z,40.60
2023-03-24T04:14:19.145Z,41.10
2023-03-24T04:16:46.354Z,40.05
2023-03-24T04:19:24.444Z,39.15
2023-03-24T04:22:13.059Z,33.80
2023-03-24T04:25:07.483Z,36.72
2023-03-24T04:27:46.657Z,37.13
2023-03-24T04:30:26.833Z,38.90
2023-03-24T04:33:05.569Z,39.67
2023-03-24T04:35:43.847Z,41.10
2023-03-24T04:38:19.036Z,40.17
2023-03-24T04:40:49.616Z,38.55
2023-03-24T04:43:20.993Z,34.78
2023-03-24T04:45:50.093Z,37.72
2023-03-24T04:48:18.820Z,39.17
2023-03-24T04:50:55.364Z,45.80
2023-03-24T04:53:22.573Z,46.42
2023-03-24T04:56:24.745Z,40.05
2023-03-24T04:58:51.395Z,40.88
2023-03-24T05:01:21.446Z,43.05
2023-03-24T05:03:51.641Z,42.67
2023-03-24T05:06:18.190Z,36.13
2023-03-24T05:08:44.739Z,38.72
2023-03-24T05:11:11.341Z,37.25
2023-03-24T05:13:37.944Z,37.20
2023-03-24T05:16:04.863Z,37.55
2023-03-24T05:18:31.575Z,38.33
2023-03-24T05:20:58.375Z,38.42
2023-03-24T05:23:24.956Z,41.53
2023-03-24T05:25:51.561Z,43.00
2023-03-24T05:28:18.457Z,43.33
2023-03-24T05:30:45.266Z,51.10
2023-03-24T05:33:12.228Z,55.67
2023-03-24T05:35:38.920Z,61.00
2023-03-24T05:38:05.603Z,62.72
2023-03-24T05:40:32.319Z,63.95
2023-03-24T05:42:59.032Z,66.47
2023-03-24T05:45:26.927Z,64.32
2023-03-24T05:47:53.513Z,59.95
2023-03-24T05:50:20.048Z,58.55
2023-03-24T05:52:46.885Z,59.53
2023-03-24T05:55:16.014Z,59.10
2023-03-24T05:57:43.531Z,57.70
2023-03-24T06:00:16.865Z,58.67
2023-03-24T06:02:45.261Z,59.25
2023-03-24T06:05:13.024Z,58.90
2023-03-24T06:07:42.715Z,60.00
2023-03-24T06:10:11.505Z,58.25
2023-03-24T06:12:38.725Z,55.25
2023-03-24T06:15:06.307Z,55.42
2023-03-24T06:17:33.937Z,53.70
2023-03-24T06:20:04.211Z,54.03
2023-03-24T06:22:32.829Z,54.10
2023-03-24T06:24:59.685Z,57.95
2023-03-24T06:27:30.374Z,64.80
2023-03-24T06:29:57.922Z,85.68
2023-03-24T06:32:25.522Z,105.55
2023-03-24T06:34:52.986Z,107.60
2023-03-24T06:37:22.388Z,104.13
2023-03-24T06:39:48.988Z,89.90
2023-03-24T06:42:16.067Z,71.70
2023-03-24T06:44:42.611Z,64.53
2023-03-24T06:47:09.195Z,61.38
2023-03-24T06:49:37.210Z,58.53
2023-03-24T06:52:04.708Z,60.78
2023-03-24T06:54:31.551Z,58.72
2023-03-24T06:56:58.230Z,59.58
2023-03-24T06:59:24.981Z,55.03
2023-03-24T07:01:52.179Z,53.08
2023-03-24T07:04:19.411Z,51.90
2023-03-24T07:07:00.899Z,53.17
2023-03-24T07:09:32.726Z,48.05
2023-03-24T07:11:59.291Z,48.97
2023-03-24T07:14:26.557Z,48.92
2023-03-24T07:16:53.726Z,49.83
2023-03-24T07:19:20.856Z,47.22
2023-03-24T07:21:50.040Z,50.70
2023-03-24T07:24:17.825Z,46.67
2023-03-24T07:26:44.622Z,45.28
2023-03-24T07:29:11.874Z,43.08
2023-03-24T07:31:39.364Z,45.75
2023-03-24T07:34:06.541Z,48.97
2023-03-24T07:36:33.278Z,47.08
2023-03-24T07:38:59.843Z,52.70
2023-03-24T07:41:27.732Z,52.65
2023-03-24T07:43:54.300Z,55.25
2023-03-24T07:46:20.906Z,56.50
2023-03-24T07:48:47.650Z,56.35
2023-03-24T07:51:14.277Z,50.97
2023-03-24T07:53:40.806Z,64.68
2023-03-24T07:56:07.946Z,74.18
2023-03-24T07:58:34.555Z,77.18
2023-03-24T08:01:01.146Z,74.25
2023-03-24T08:03:28.451Z,74.40
2023-03-24T08:05:55.468Z,66.93
2023-03-24T08:08:22.194Z,71.40
2023-03-24T08:10:50.276Z,66.40
2023-03-24T08:13:18.035Z,60.15
2023-03-24T08:15:44.710Z,50.85
2023-03-24T08:18:11.527Z,50.35
2023-03-24T08:20:38.461Z,46.50
2023-03-24T08:23:07.298Z,44.60
2023-03-24T08:25:37.774Z,44.97
2023-03-24T08:28:06.102Z,44.17
2023-03-24T08:30:33.026Z,45.22
2023-03-24T08:33:02.645Z,44.25
2023-03-24T08:35:32.114Z,46.78
2023-03-24T08:37:59.712Z,37.85
2023-03-24T08:40:27.812Z,37.78
2023-03-24T08:42:57.777Z,37.85
2023-03-24T08:45:27.629Z,27.98
2023-03-24T08:47:55.488Z,28.35
2023-03-24T08:50:25.943Z,24.25
2023-03-24T08:52:52.679Z,22.50
2023-03-24T08:55:21.050Z,24.10
2023-03-24T08:57:47.897Z,24.05
2023-03-24T09:00:16.063Z,23.20
2023-03-24T09:02:47.545Z,22.45
2023-03-24T09:05:32.903Z,24.90
2023-03-24T09:08:08.269Z,24.10
2023-03-24T09:10:35.040Z,22.75
2023-03-24T09:13:01.832Z,22.45
2023-03-24T09:15:28.583Z,22.00
2023-03-24T09:17:55.256Z,23.15
2023-03-24T09:20:21.866Z,22.55
2023-03-24T09:22:49.794Z,21.67
2023-03-24T09:25:19.161Z,20.63
2023-03-24T09:27:46.532Z,21.92
2023-03-24T09:30:15.646Z,22.83
2023-03-24T09:32:42.510Z,22.35
2023-03-24T09:35:10.113Z,19.15
2023-03-24T09:37:38.511Z,19.33
2023-03-24T09:40:06.072Z,21.80
2023-03-24T09:42:45.659Z,18.85
2023-03-24T09:45:19.631Z,18.85
2023-03-24T09:47:58.692Z,18.88
2023-03-24T09:50:29.341Z,19.20
2023-03-24T09:53:05.632Z,19.98
2023-03-24T09:55:33.016Z,19.63
2023-03-24T09:58:05.746Z,19.10
2023-03-24T10:00:33.208Z,18.23
2023-03-24T10:03:12.255Z,19.70
2023-03-24T10:05:48.203Z,20.45
2023-03-24T10:08:21.655Z,17.48
2023-03-24T10:10:53.860Z,18.02
2023-03-24T10:13:44.187Z,20.02
2023-03-24T10:16:18.200Z,18.55
2023-03-24T10:18:50.781Z,18.33
2023-03-24T10:21:22.570Z,16.85
2023-03-24T10:24:05.958Z,15.55
2023-03-24T10:27:29.984Z,18.00
2023-03-24T10:30:04.325Z,15.50
2023-03-24T10:32:35.076Z,15.07
2023-03-24T10:35:10.022Z,15.57
2023-03-24T10:37:37.444Z,14.20
2023-03-24T10:40:14.890Z,14.73
2023-03-24T10:42:41.455Z,13.18
2023-03-24T10:45:14.093Z,13.45
2023-03-24T10:47:42.144Z,12.70
2023-03-24T10:50:14.543Z,12.60
2023-03-24T10:52:47.344Z,13.07
2023-03-24T10:55:17.155Z,12.65
2023-03-24T10:57:49.909Z,12.38
2023-03-24T11:00:19.866Z,13.38
2023-03-24T11:02:59.297Z,13.00
2023-03-24T11:05:30.661Z,11.60
2023-03-24T11:08:12.357Z,12.35
2023-03-24T11:10:39.116Z,11.93
2023-03-24T11:13:41.212Z,12.20
2023-03-24T11:16:16.188Z,11.82
2023-03-24T11:19:22.713Z,11.13
2023-03-24T11:21:57.744Z,12.18
2023-03-24T11:24:25.121Z,10.98
2023-03-24T11:27:04.219Z,11.10
2023-03-24T11:29:34.235Z,10.38
2023-03-24T11:32:03.513Z,11.00
2023-03-24T11:34:34.399Z,10.90
2023-03-24T11:37:09.374Z,10.13
2023-03-24T11:39:36.154Z,11.05
2023-03-24T11:42:10.922Z,11.93
2023-03-24T11:44:46.797Z,11.13
2023-03-24T11:47:37.566Z,11.35
2023-03-24T11:50:07.111Z,10.80
2023-03-24T11:52:39.579Z,10.80
2023-03-24T11:55:16.466Z,10.30
2023-03-24T11:57:50.418Z,9.60
2023-03-24T12:03:33.066Z,9.63
2023-03-24T12:06:02.686Z,10.45
2023-03-24T12:08:55.629Z,10.20
2023-03-24T12:11:56.323Z,10.05
2023-03-24T12:14:47.728Z,10.63
2023-03-24T12:17:21.939Z,9.45
2023-03-24T12:20:07.548Z,10.48
2023-03-24T12:23:04.819Z,10.65
2023-03-24T12:25:31.387Z,12.05
2023-03-24T12:28:19.403Z,10.40
2023-03-24T12:31:05.187Z,9.90
2023-03-24T12:33:40.791Z,10.93
2023-03-24T12:36:37.262Z,9.50
2023-03-24T12:39:12.777Z,9.73
2023-03-24T12:42:05.377Z,8.32
2023-03-24T12:45:04.875Z,8.52
2023-03-24T12:47:40.416Z,8.57
2023-03-24T12:50:34.309Z,8.40
2023-03-24T12:53:08.132Z,8.68
2023-03-24T12:55:43.409Z,8.60
2023-03-24T12:58:35.900Z,7.47
2023-03-24T13:01:29.892Z,7.80
2023-03-24T13:04:05.651Z,7.30
2023-03-24T13:07:14.787Z,7.13
2023-03-24T13:10:06.760Z,7.57
2023-03-24T13:12:39.213Z,7.22
2023-03-24T13:15:11.820Z,7.25
2023-03-24T13:17:48.625Z,7.50
2023-03-24T13:20:28.012Z,8.13
2023-03-24T13:22:57.587Z,7.30
2023-03-24T13:25:27.255Z,7.50
2023-03-24T13:27:58.619Z,7.90
2023-03-24T13:30:33.799Z,7.97
2023-03-24T13:33:11.484Z,7.82
2023-03-24T13:36:16.636Z,7.70
2023-03-24T13:38:50.221Z,7.00
2023-03-24T13:44:02.650Z,7.43
2023-03-24T13:46:29.604Z,7.50
2023-03-24T13:48:59.033Z,8.30
2023-03-24T13:51:41.055Z,7.32
2023-03-24T13:54:16.502Z,7.70
2023-03-24T13:56:49.126Z,7.63
2023-03-24T13:59:40.990Z,7.30
2023-03-24T14:02:18.105Z,6.93
2023-03-24T14:04:47.471Z,7.47
2023-03-24T14:07:41.187Z,7.45
2023-03-24T14:10:17.332Z,7.90
2023-03-24T14:12:58.908Z,8.07
2023-03-24T14:15:35.844Z,7.60
2023-03-24T14:18:26.296Z,7.68
2023-03-24T14:20:55.892Z,7.30
2023-03-24T14:23:49.282Z,7.20
2023-03-24T14:26:23.232Z,7.07
2023-03-24T14:28:54.293Z,7.70
2023-03-24T14:31:36.583Z,7.40
2023-03-24T14:34:20.347Z,7.75
2023-03-24T14:37:00.067Z,7.18
2023-03-24T14:39:43.981Z,7.53
2023-03-24T14:44:59.889Z,7.68
2023-03-24T14:47:31.037Z,7.85
2023-03-24T14:50:00.049Z,7.80
2023-03-24T14:52:39.063Z,8.77
2023-03-24T14:55:10.349Z,8.77
2023-03-24T14:57:45.644Z,8.70
2023-03-24T15:00:31.123Z,9.07
2023-03-24T15:03:10.828Z,9.50
2023-03-24T15:05:38.871Z,9.30
2023-03-24T15:08:23.496Z,8.77
2023-03-24T15:11:04.086Z,9.98
2023-03-24T15:13:42.691Z,9.25
2023-03-24T15:16:12.589Z,9.57
2023-03-24T15:19:00.717Z,9.55
2023-03-24T15:21:37.083Z,10.63
2023-03-24T15:24:29.194Z,10.25
2023-03-24T15:27:14.919Z,11.45
2023-03-24T15:29:43.413Z,11.40
2023-03-24T15:32:19.003Z,11.10
2023-03-24T15:34:52.903Z,10.77
2023-03-24T15:40:12.560Z,10.10
2023-03-24T15:42:45.145Z,10.35
2023-03-24T15:45:27.713Z,11.05
2023-03-24T15:47:55.062Z,10.65
2023-03-24T15:50:32.037Z,11.52
2023-03-24T15:53:18.771Z,10.57
2023-03-24T15:55:45.730Z,9.80
2023-03-24T15:58:21.977Z,9.88
2023-03-24T16:00:53.175Z,9.80
2023-03-24T16:03:26.406Z,10.20
2023-03-24T16:05:55.570Z,10.80
2023-03-24T16:08:30.823Z,10.45
2023-03-24T16:11:07.857Z,10.07
2023-03-24T16:13:35.051Z,10.38
2023-03-24T16:16:23.341Z,10.32
2023-03-24T16:18:50.759Z,10.07
2023-03-24T16:21:19.073Z,11.27
2023-03-24T16:23:47.020Z,10.52
2023-03-24T16:26:18.082Z,10.55
2023-03-24T16:28:45.972Z,10.65
2023-03-24T16:31:34.993Z,11.45
2023-03-24T16:34:01.692Z,10.50
2023-03-24T16:36:28.271Z,10.98
2023-03-24T16:38:57.464Z,11.85
2023-03-24T16:41:24.706Z,10.68
2023-03-24T16:43:53.070Z,10.82
2023-03-24T16:46:25.518Z,11.45
2023-03-24T16:48:52.664Z,10.18
2023-03-24T16:51:19.546Z,10.98
2023-03-24T16:53:46.702Z,10.85
2023-03-24T16:56:15.551Z,10.90
2023-03-24T16:58:42.168Z,10.40
2023-03-24T17:01:37.799Z,11.50
2023-03-24T17:04:10.636Z,11.88
2023-03-24T17:06:39.895Z,11.32
2023-03-24T17:09:08.177Z,10.73
2023-03-24T17:11:41.673Z,11.45
2023-03-24T17:14:12.211Z,10.50
2023-03-24T17:16:44.429Z,11.02
2023-03-24T17:19:16.848Z,11.10
2023-03-24T17:21:59.284Z,10.13
2023-03-24T17:24:25.949Z,11.45
2023-03-24T17:26:52.826Z,10.43
2023-03-24T17:29:19.403Z,11.40
2023-03-24T17:31:46.080Z,11.13
2023-03-24T17:36:43.945Z,11.68
2023-03-24T17:39:16.058Z,12.18
2023-03-24T17:41:42.605Z,11.50
2023-03-24T17:44:09.175Z,12.25
2023-03-24T17:46:35.795Z,10.63
2023-03-24T17:49:02.370Z,10.30
2023-03-24T17:51:28.924Z,12.60
2023-03-24T17:53:55.461Z,11.35
2023-03-24T17:56:22.074Z,11.18
2023-03-24T17:58:48.939Z,13.32
2023-03-24T18:01:18.267Z,11.88
2023-03-24T18:03:45.067Z,11.35
2023-03-24T18:06:15.692Z,11.45
2023-03-24T18:08:42.632Z,10.70
2023-03-24T18:11:11.777Z,11.38
2023-03-24T18:13:38.466Z,11.00
2023-03-24T18:16:19.708Z,11.95
2023-03-24T18:18:47.838Z,11.55
2023-03-24T18:21:14.714Z,11.68
2023-03-24T18:23:41.489Z,11.38
2023-03-24T18:26:08.903Z,12.65
2023-03-24T18:28:37.531Z,12.13
2023-03-24T18:31:16.008Z,12.40
2023-03-24T18:33:45.914Z,13.38
2023-03-24T18:36:16.599Z,14.07
2023-03-24T18:38:43.589Z,13.82
2023-03-24T18:41:12.851Z,15.25
2023-03-24T18:43:44.982Z,14.48
2023-03-24T18:46:11.833Z,14.77
2023-03-24T18:48:39.610Z,13.93
2023-03-24T18:51:07.817Z,13.68
2023-03-24T18:53:34.713Z,14.68
2023-03-24T18:56:02.391Z,16.48
2023-03-24T18:58:28.976Z,15.80
2023-03-24T19:00:57.516Z,14.35
2023-03-24T19:03:27.161Z,15.00
2023-03-24T19:05:54.103Z,16.58
2023-03-24T19:08:21.940Z,16.98
2023-03-24T19:10:49.161Z,15.93
2023-03-24T19:13:16.944Z,15.45
2023-03-24T19:15:48.377Z,16.25
2023-03-24T19:18:15.511Z,16.45
2023-03-24T19:20:42.215Z,17.85
2023-03-24T19:23:09.284Z,16.77
2023-03-24T19:25:36.315Z,16.25
2023-03-24T19:28:03.300Z,16.58
2023-03-24T19:30:29.909Z,16.20
2023-03-24T19:32:56.968Z,16.58
2023-03-24T19:35:24.211Z,16.90
2023-03-24T19:37:50.836Z,15.98
2023-03-24T19:40:17.598Z,17.02
2023-03-24T19:42:45.171Z,17.40
2023-03-24T19:45:15.491Z,18.30
2023-03-24T19:47:51.735Z,17.70
2023-03-24T19:50:18.667Z,17.92
2023-03-24T19:52:46.172Z,18.25
2023-03-24T19:55:12.824Z,18.25
2023-03-24T19:57:39.502Z,18.13
2023-03-24T20:00:10.201Z,19.60
2023-03-24T20:02:38.336Z,18.63
2023-03-24T20:05:06.844Z,21.90
2023-03-24T20:07:34.194Z,19.33
2023-03-24T20:10:00.872Z,20.30
2023-03-24T20:12:27.812Z,21.20
2023-03-24T20:14:55.061Z,21.70
2023-03-24T20:17:24.837Z,22.77
2023-03-24T20:19:51.429Z,25.00
2023-03-24T20:22:18.064Z,22.65
2023-03-24T20:24:44.736Z,23.60
2023-03-24T20:27:11.323Z,25.52
2023-03-24T20:29:39.896Z,28.10
2023-03-24T20:32:10.226Z,28.88
2023-03-24T20:34:38.064Z,27.25
2023-03-24T20:37:05.560Z,30.40
2023-03-24T20:39:32.348Z,32.75
2023-03-24T20:41:59.194Z,35.95
2023-03-24T20:44:26.201Z,34.30
2023-03-24T20:46:53.030Z,36.13
2023-03-24T20:49:19.630Z,37.47
2023-03-24T20:51:46.287Z,41.60
2023-03-24T20:54:13.428Z,37.70
2023-03-24T20:56:40.074Z,37.70
2023-03-24T20:59:07.085Z,39.92
2023-03-24T21:01:41.893Z,40.88
2023-03-24T21:04:10.090Z,39.83
2023-03-24T21:06:40.317Z,38.55
2023-03-24T21:09:07.248Z,37.50
2023-03-24T21:11:34.206Z,40.05
2023-03-24T21:14:02.643Z,40.58
2023-03-24T21:16:33.702Z,41.75
2023-03-24T21:19:03.761Z,40.00
2023-03-24T21:21:31.075Z,41.72
2023-03-24T21:23:58.114Z,41.78
2023-03-24T21:26:25.364Z,43.75
2023-03-24T21:28:55.514Z,43.70
2023-03-24T21:31:29.532Z,43.58
2023-03-24T21:33:57.317Z,51.75
2023-03-24T21:36:25.649Z,51.53
2023-03-24T21:38:54.048Z,57.70
2023-03-24T21:41:22.935Z,60.72
2023-03-24T21:43:54.270Z,70.75
2023-03-24T21:46:22.463Z,73.10
2023-03-24T21:48:55.506Z,76.13
2023-03-24T21:51:25.081Z,70.28
2023-03-24T21:53:55.834Z,79.57
2023-03-24T21:56:23.349Z,78.75
2023-03-24T21:58:52.135Z,82.05
2023-03-24T22:01:18.695Z,86.50
2023-03-24T22:03:46.421Z,78.53
2023-03-24T22:06:13.278Z,80.10
2023-03-24T22:08:43.517Z,80.07
2023-03-24T22:11:10.994Z,81.68
2023-03-24T22:13:39.364Z,83.88
2023-03-24T22:16:06.769Z,88.95
2023-03-24T22:18:35.093Z,99.68
2023-03-24T22:21:06.863Z,107.68
2023-03-24T22:23:37.798Z,100.65
2023-03-24T22:26:10.396Z,107.43
2023-03-24T22:28:37.789Z,106.65
2023-03-24T22:31:13.795Z,109.75
2023-03-24T22:33:40.683Z,104.90
2023-03-24T22:36:08.029Z,105.43
2023-03-24T22:38:34.962Z,104.03
2023-03-24T22:41:04.991Z,103.70
2023-03-24T22:43:32.087Z,100.93
2023-03-24T22:45:58.682Z,102.35
2023-03-24T22:48:25.686Z,101.90
2023-03-24T22:50:52.984Z,101.72
2023-03-24T22:53:20.588Z,103.35
2023-03-24T22:55:47.400Z,98.07
2023-03-24T22:58:14.270Z,97.65
2023-03-24T23:00:42.211Z,99.97
2023-03-24T23:03:10.008Z,100.60
2023-03-24T23:05:45.561Z,97.20
2023-03-24T23:08:15.153Z,95.78
2023-03-24T23:10:43.982Z,94.95
2023-03-24T23:13:11.267Z,99.53
2023-03-24T23:15:38.931Z,96.22
2023-03-24T23:18:05.716Z,94.28
2023-03-24T23:20:32.459Z,92.97
2023-03-24T23:22:59.008Z,94.35
2023-03-24T23:25:25.976Z,93.72
2023-03-24T23:27:52.585Z,96.53
2023-03-24T23:30:19.767Z,97.50
2023-03-24T23:32:46.922Z,92.82
2023-03-24T23:35:13.883Z,86.47
2023-03-24T23:37:40.484Z,87.75
2023-03-24T23:40:12.769Z,84.30
2023-03-24T23:42:41.448Z,75.20
2023-03-24T23:45:10.862Z,74.65
2023-03-24T23:47:37.684Z,76.22
2023-03-24T23:50:06.329Z,64.40
2023-03-24T23:52:33.801Z,62.40
2023-03-24T23:55:02.226Z,55.83
2023-03-24T23:57:29.014Z,55.45
2023-03-24T23:59:55.590Z,54.47
